createdAt,value
2022-08-09T00:00:12.026Z,13.65
2022-08-09T00:02:49.539Z,13.82
2022-08-09T00:06:19.506Z,13.87
2022-08-09T00:08:10.870Z,13.95
2022-08-09T00:10:39.092Z,13.89
2022-08-09T00:13:16.982Z,13.83
2022-08-09T00:15:58.636Z,13.70
2022-08-09T00:18:26.551Z,13.71
2022-08-09T00:20:55.275Z,13.66
2022-08-09T00:23:55.685Z,13.49
2022-08-09T00:26:08.740Z,13.44
2022-08-09T00:28:38.472Z,13.38
2022-08-09T00:31:46.737Z,13.42
2022-08-09T00:33:54.286Z,13.29
2022-08-09T00:36:22.242Z,13.33
2022-08-09T00:38:54.153Z,13.43
2022-08-09T00:44:10.259Z,13.54
2022-08-09T00:44:19.910Z,13.44
2022-08-09T00:47:04.874Z,13.41
2022-08-09T00:49:34.565Z,13.28
2022-08-09T00:52:05.325Z,13.15
2022-08-09T00:54:36.272Z,13.02
2022-08-09T00:57:10.393Z,12.87
2022-08-09T00:59:41.366Z,12.74
2022-08-09T01:02:19.110Z,12.69
2022-08-09T01:05:14.340Z,12.76
2022-08-09T01:08:01.658Z,12.66
2022-08-09T01:10:44.232Z,12.45
2022-08-09T01:13:41.983Z,12.52
2022-08-09T01:16:14.061Z,12.61
2022-08-09T01:18:47.589Z,12.62
2022-08-09T01:21:45.114Z,12.63
2022-08-09T01:24:50.507Z,12.71
2022-08-09T01:27:21.565Z,12.88
2022-08-09T01:29:56.557Z,12.92
2022-08-09T01:32:33.516Z,12.77
2022-08-09T01:35:18.223Z,12.54
2022-08-09T01:38:09.389Z,12.59
2022-08-09T01:40:42.835Z,12.56
2022-08-09T01:43:11.293Z,12.56
2022-08-09T01:45:44.712Z,12.46
2022-08-09T01:48:15.735Z,12.51
2022-08-09T01:50:48.096Z,12.51
2022-08-09T01:53:19.249Z,12.69
2022-08-09T01:55:47.663Z,12.65
2022-08-09T01:58:15.868Z,12.47
2022-08-09T02:00:46.269Z,12.41
2022-08-09T02:03:19.346Z,12.27
2022-08-09T02:05:53.684Z,12.09
2022-08-09T02:08:57.096Z,12.17
2022-08-09T02:11:25.016Z,12.33
2022-08-09T02:14:15.092Z,12.42
2022-08-09T02:17:15.270Z,12.19
2022-08-09T02:19:43.387Z,12.13
2022-08-09T02:22:39.652Z,12.18
2022-08-09T02:25:24.971Z,12.14
2022-08-09T02:28:04.060Z,12.18
2022-08-09T02:30:41.371Z,12.04
2022-08-09T02:33:14.147Z,11.97
2022-08-09T02:36:01.382Z,11.97
2022-08-09T02:38:32.264Z,12.05
2022-08-09T02:41:13.734Z,12.12
2022-08-09T02:43:54.805Z,12.17
2022-08-09T02:46:27.567Z,12.02
2022-08-09T02:48:56.632Z,11.97
2022-08-09T02:51:24.265Z,11.98
2022-08-09T02:54:00.871Z,12.10
2022-08-09T02:56:30.252Z,12.00
2022-08-09T02:58:58.188Z,11.83
2022-08-09T03:01:29.537Z,11.67
2022-08-09T03:04:19.344Z,11.59
2022-08-09T03:06:48.946Z,11.58
2022-08-09T03:09:16.347Z,11.66
2022-08-09T03:12:05.540Z,11.71
2022-08-09T03:14:31.815Z,11.64
2022-08-09T03:17:01.726Z,11.52
2022-08-09T03:19:57.775Z,11.48
2022-08-09T03:22:25.503Z,11.55
2022-08-09T03:25:26.990Z,11.50
2022-08-09T03:27:52.731Z,11.49
2022-08-09T03:30:29.682Z,11.59
2022-08-09T03:33:12.907Z,11.69
2022-08-09T03:35:44.228Z,11.70
2022-08-09T03:38:30.668Z,11.74
2022-08-09T03:40:57.876Z,11.71
2022-08-09T03:43:24.327Z,11.54
2022-08-09T03:46:05.019Z,11.55
2022-08-09T03:48:43.038Z,11.68
2022-08-09T03:51:55.183Z,11.79
2022-08-09T03:54:10.972Z,11.84
2022-08-09T03:56:41.332Z,11.78
2022-08-09T03:59:13.533Z,11.84
2022-08-09T04:01:44.585Z,11.77
2022-08-09T04:04:14.789Z,11.79
2022-08-09T04:06:44.053Z,11.84
2022-08-09T04:09:41.999Z,11.87
2022-08-09T04:12:11.842Z,11.90
2022-08-09T04:15:00.408Z,11.88
2022-08-09T04:17:27.003Z,11.87
2022-08-09T04:19:56.393Z,11.89
2022-08-09T04:22:22.915Z,11.85
2022-08-09T04:24:49.386Z,11.87
2022-08-09T04:27:17.131Z,11.81
2022-08-09T04:29:50.152Z,11.79
2022-08-09T04:32:17.110Z,11.76
2022-08-09T04:34:58.085Z,11.86
2022-08-09T04:37:45.334Z,12.07
2022-08-09T04:40:28.916Z,12.02
2022-08-09T04:43:00.176Z,12.25
2022-08-09T04:45:30.806Z,12.40
2022-08-09T04:48:03.149Z,12.35
2022-08-09T04:50:37.567Z,12.29
2022-08-09T04:53:13.160Z,12.34
2022-08-09T04:55:58.787Z,12.48
2022-08-09T04:58:27.907Z,12.53
2022-08-09T05:00:55.905Z,12.66
2022-08-09T05:03:39.919Z,12.92
2022-08-09T05:06:09.432Z,13.20
2022-08-09T05:08:36.130Z,13.45
2022-08-09T05:11:03.069Z,13.58
2022-08-09T05:13:33.145Z,13.83
2022-08-09T05:16:00.545Z,14.09
2022-08-09T05:18:50.637Z,14.28
2022-08-09T05:21:23.266Z,14.66
2022-08-09T05:24:01.007Z,15.01
2022-08-09T05:26:37.145Z,15.08
2022-08-09T05:29:21.837Z,14.89
2022-08-09T05:31:57.085Z,15.00
2022-08-09T05:34:31.456Z,15.11
2022-08-09T05:37:06.765Z,15.06
2022-08-09T05:39:43.249Z,15.10
2022-08-09T05:42:17.661Z,15.18
2022-08-09T05:44:51.067Z,15.29
2022-08-09T05:47:23.002Z,15.24
2022-08-09T05:50:34.860Z,15.25
2022-08-09T05:52:38.935Z,15.34
2022-08-09T05:55:08.763Z,15.54
2022-08-09T05:57:50.644Z,15.65
2022-08-09T06:00:23.000Z,15.79
2022-08-09T06:02:54.131Z,15.76
2022-08-09T06:05:31.306Z,15.97
2022-08-09T06:08:10.891Z,16.11
2022-08-09T06:10:37.935Z,16.24
2022-08-09T06:13:11.744Z,16.38
2022-08-09T06:15:46.832Z,16.11
2022-08-09T06:18:13.791Z,16.27
2022-08-09T06:20:42.404Z,16.60
2022-08-09T06:23:12.082Z,16.76
2022-08-09T06:25:42.140Z,16.82
2022-08-09T06:28:09.834Z,17.09
2022-08-09T06:30:36.209Z,17.24
2022-08-09T06:33:30.037Z,17.25
2022-08-09T06:35:57.543Z,17.25
2022-08-09T06:38:37.136Z,17.34
2022-08-09T06:41:13.489Z,17.50
2022-08-09T06:43:46.091Z,17.68
2022-08-09T06:46:39.041Z,17.76
2022-08-09T06:49:00.364Z,17.64
2022-08-09T06:51:27.039Z,17.40
2022-08-09T06:53:54.686Z,17.48
2022-08-09T06:56:21.046Z,17.23
2022-08-09T07:00:54.214Z,17.28
2022-08-09T07:01:54.318Z,17.37
2022-08-09T07:04:24.724Z,17.68
2022-08-09T07:07:00.548Z,17.53
2022-08-09T07:09:57.064Z,17.70
2022-08-09T07:12:18.059Z,18.25
2022-08-09T07:14:51.416Z,18.57
2022-08-09T07:17:21.508Z,18.71
2022-08-09T07:19:50.658Z,18.49
2022-08-09T07:22:18.605Z,18.54
2022-08-09T07:25:00.671Z,19.06
2022-08-09T07:27:34.022Z,19.34
2022-08-09T07:30:01.951Z,19.30
2022-08-09T07:32:32.852Z,19.51
2022-08-09T07:35:10.024Z,18.99
2022-08-09T07:37:43.604Z,18.99
2022-08-09T07:40:17.588Z,19.37
2022-08-09T07:42:52.452Z,19.46
2022-08-09T07:45:39.518Z,19.49
2022-08-09T07:48:08.089Z,19.74
2022-08-09T07:50:53.012Z,19.58
2022-08-09T07:54:04.290Z,19.51
2022-08-09T07:56:27.184Z,19.90
2022-08-09T07:58:54.688Z,20.05
2022-08-09T08:01:21.610Z,19.96
2022-08-09T08:03:56.892Z,20.07
2022-08-09T08:06:31.929Z,20.28
2022-08-09T08:09:04.607Z,20.42
2022-08-09T08:12:11.149Z,20.44
2022-08-09T08:14:18.313Z,20.17
2022-08-09T08:17:00.381Z,20.49
2022-08-09T08:19:34.136Z,20.57
2022-08-09T08:22:01.582Z,20.60
2022-08-09T08:24:34.318Z,20.38
2022-08-09T08:27:07.165Z,20.13
2022-08-09T08:29:48.762Z,20.29
2022-08-09T08:32:24.148Z,20.17
2022-08-09T08:34:58.727Z,20.38
2022-08-09T08:37:26.195Z,20.54
2022-08-09T08:40:09.287Z,20.45
2022-08-09T08:42:38.093Z,20.45
2022-08-09T08:45:11.853Z,20.23
2022-08-09T08:47:42.679Z,20.24
2022-08-09T08:50:15.619Z,20.41
2022-08-09T08:52:58.183Z,20.21
2022-08-09T08:55:26.556Z,20.12
2022-08-09T08:57:56.950Z,20.04
2022-08-09T09:00:27.908Z,20.04
2022-08-09T09:03:08.295Z,20.20
2022-08-09T09:05:58.743Z,20.74
2022-08-09T09:08:29.933Z,21.13
2022-08-09T09:11:01.708Z,21.56
2022-08-09T09:13:34.792Z,20.94
2022-08-09T09:16:16.032Z,20.83
2022-08-09T09:18:48.069Z,20.80
2022-08-09T09:21:26.138Z,20.70
2022-08-09T09:23:58.074Z,20.37
2022-08-09T09:26:26.102Z,20.37
2022-08-09T09:29:03.979Z,20.89
2022-08-09T09:32:06.385Z,21.51
2022-08-09T09:34:23.930Z,21.70
2022-08-09T09:36:53.940Z,21.30
2022-08-09T09:39:50.490Z,21.30
2022-08-09T09:42:29.413Z,21.60
2022-08-09T09:45:03.261Z,21.58
2022-08-09T09:47:30.277Z,21.59
2022-08-09T09:50:15.365Z,21.84
2022-08-09T09:52:56.187Z,21.27
2022-08-09T09:55:31.377Z,21.35
2022-08-09T09:58:15.728Z,21.26
2022-08-09T10:00:54.045Z,21.04
2022-08-09T10:04:00.145Z,20.99
2022-08-09T10:06:32.523Z,21.13
2022-08-09T10:09:11.772Z,21.19
2022-08-09T10:12:00.242Z,21.26
2022-08-09T10:14:34.897Z,21.41
2022-08-09T10:17:38.948Z,21.25
2022-08-09T10:19:59.958Z,21.23
2022-08-09T10:22:35.009Z,21.48
2022-08-09T10:25:12.392Z,21.58
2022-08-09T10:27:58.068Z,21.44
2022-08-09T10:33:29.647Z,21.58
2022-08-09T10:36:09.398Z,21.48
2022-08-09T10:38:55.822Z,21.64
2022-08-09T10:41:25.669Z,21.93
2022-08-09T10:44:01.126Z,22.22
2022-08-09T10:46:57.744Z,22.44
2022-08-09T10:49:50.424Z,22.62
2022-08-09T10:52:42.806Z,22.51
2022-08-09T10:55:24.269Z,22.46
2022-08-09T10:57:52.044Z,22.74
2022-08-09T11:00:31.036Z,22.89
2022-08-09T11:03:16.004Z,22.72
2022-08-09T11:06:18.472Z,22.24
2022-08-09T11:08:47.962Z,22.12
2022-08-09T11:11:18.851Z,22.19
2022-08-09T11:13:54.567Z,22.13
2022-08-09T11:16:36.022Z,22.16
2022-08-09T11:19:09.616Z,22.24
2022-08-09T11:22:10.708Z,22.07
2022-08-09T11:25:08.788Z,22.17
2022-08-09T11:28:04.173Z,22.62
2022-08-09T11:30:32.621Z,23.01
2022-08-09T11:33:05.652Z,23.01
2022-08-09T11:35:49.866Z,22.85
2022-08-09T11:38:19.352Z,22.65
2022-08-09T11:40:49.085Z,22.61
2022-08-09T11:43:25.543Z,22.32
2022-08-09T11:45:59.399Z,22.17
2022-08-09T11:48:30.092Z,22.40
2022-08-09T11:52:56.991Z,22.36
2022-08-09T11:54:01.041Z,22.27
2022-08-09T11:56:41.977Z,22.37
2022-08-09T11:59:11.569Z,22.51
2022-08-09T12:02:18.262Z,22.67
2022-08-09T12:04:37.591Z,22.61
2022-08-09T12:07:08.262Z,22.61
2022-08-09T12:09:35.971Z,22.83
2022-08-09T12:12:12.290Z,23.13
2022-08-09T12:15:07.324Z,23.33
2022-08-09T12:17:34.644Z,23.16
2022-08-09T12:20:41.927Z,23.23
2022-08-09T12:23:08.386Z,23.11
2022-08-09T12:25:38.404Z,23.50
2022-08-09T12:28:58.863Z,23.48
2022-08-09T12:31:57.923Z,23.36
2022-08-09T12:34:13.716Z,23.27
2022-08-09T12:36:58.959Z,23.17
2022-08-09T12:39:41.035Z,23.29
2022-08-09T12:42:09.067Z,23.22
2022-08-09T12:44:37.977Z,23.22
2022-08-09T12:47:09.339Z,23.47
2022-08-09T12:49:39.506Z,23.93
2022-08-09T12:52:17.773Z,24.06
2022-08-09T12:56:11.524Z,24.14
2022-08-09T12:57:46.818Z,24.16
2022-08-09T13:00:18.415Z,24.29
2022-08-09T13:02:57.082Z,24.25
2022-08-09T13:05:26.150Z,24.08
2022-08-09T13:08:21.307Z,23.88
2022-08-09T13:11:13.083Z,23.86
2022-08-09T13:14:40.698Z,23.83
2022-08-09T13:17:04.455Z,23.75
2022-08-09T13:20:10.070Z,23.77
2022-08-09T13:23:01.495Z,24.05
2022-08-09T13:25:14.051Z,24.25
2022-08-09T13:27:55.416Z,24.35
2022-08-09T13:30:50.401Z,23.88
2022-08-09T13:33:23.987Z,23.88
2022-08-09T13:36:24.162Z,23.68
2022-08-09T13:38:56.608Z,24.00
2022-08-09T13:41:55.515Z,23.99
2022-08-09T13:44:16.459Z,24.44
2022-08-09T13:47:27.027Z,24.78
2022-08-09T13:49:37.618Z,24.53
2022-08-09T13:52:09.302Z,24.36
2022-08-09T13:54:36.335Z,24.68
2022-08-09T13:57:09.773Z,24.46
2022-08-09T13:59:58.065Z,24.53
2022-08-09T14:02:26.056Z,24.81
2022-08-09T14:04:59.734Z,25.24
2022-08-09T14:07:30.344Z,25.40
2022-08-09T14:10:09.470Z,25.22
2022-08-09T14:12:44.144Z,25.26
2022-08-09T14:15:19.558Z,24.91
2022-08-09T14:18:18.924Z,24.64
2022-08-09T14:20:43.773Z,24.84
2022-08-09T14:23:11.220Z,24.29
2022-08-09T14:25:51.219Z,24.32
2022-08-09T14:28:18.159Z,24.69
2022-08-09T14:30:47.381Z,24.96
2022-08-09T14:33:13.744Z,25.39
2022-08-09T14:35:52.690Z,25.09
2022-08-09T14:38:19.732Z,24.78
2022-08-09T14:41:01.374Z,24.94
2022-08-09T14:43:47.439Z,25.15
2022-08-09T14:46:59.035Z,25.21
2022-08-09T14:49:02.412Z,25.28
2022-08-09T14:51:30.268Z,25.39
2022-08-09T14:54:09.348Z,25.50
2022-08-09T14:56:36.158Z,25.79
2022-08-09T14:59:22.570Z,25.84
2022-08-09T15:01:50.285Z,25.16
2022-08-09T15:04:16.714Z,24.10
2022-08-09T15:06:43.205Z,24.10
2022-08-09T15:09:16.673Z,24.25
2022-08-09T15:12:04.113Z,24.62
2022-08-09T15:14:33.887Z,24.74
2022-08-09T15:17:00.585Z,24.56
2022-08-09T15:19:35.924Z,24.61
2022-08-09T15:22:03.287Z,24.63
2022-08-09T15:24:29.947Z,24.84
2022-08-09T15:26:56.666Z,24.92
2022-08-09T15:30:48.885Z,24.98
2022-08-09T15:32:29.377Z,24.88
2022-08-09T15:35:00.752Z,24.63
2022-08-09T15:37:37.287Z,24.69
2022-08-09T15:40:22.711Z,24.61
2022-08-09T15:42:52.581Z,24.59
2022-08-09T15:45:21.636Z,24.41
2022-08-09T15:48:06.560Z,24.09
2022-08-09T15:50:44.044Z,24.08
2022-08-09T15:53:18.825Z,23.97
2022-08-09T15:56:21.472Z,23.71
2022-08-09T15:58:44.625Z,23.60
2022-08-09T16:01:13.284Z,23.43
2022-08-09T16:03:41.782Z,23.52
2022-08-09T16:06:29.446Z,23.42
2022-08-09T16:09:00.818Z,23.42
2022-08-09T16:11:29.944Z,23.33
2022-08-09T16:14:02.732Z,23.19
2022-08-09T16:16:34.619Z,23.08
2022-08-09T16:19:04.407Z,23.12
2022-08-09T16:21:31.687Z,23.19
2022-08-09T16:24:02.399Z,23.11
2022-08-09T16:26:35.406Z,22.99
2022-08-09T16:29:12.732Z,22.83
2022-08-09T16:32:19.577Z,22.75
2022-08-09T16:34:55.112Z,22.82
2022-08-09T16:37:53.735Z,22.77
2022-08-09T16:40:10.405Z,22.79
2022-08-09T16:42:37.815Z,22.77
2022-08-09T16:45:06.286Z,22.68
2022-08-09T16:48:39.385Z,22.66
2022-08-09T16:50:32.497Z,22.61
2022-08-09T16:53:00.944Z,22.62
2022-08-09T16:55:31.556Z,22.56
2022-08-09T16:58:16.458Z,22.64
2022-08-09T17:00:43.507Z,22.53
2022-08-09T17:03:21.142Z,22.43
2022-08-09T17:06:07.197Z,22.42
2022-08-09T17:09:03.225Z,22.40
2022-08-09T17:11:39.967Z,22.29
2022-08-09T17:14:16.235Z,22.33
2022-08-09T17:16:53.493Z,22.72
2022-08-09T17:19:20.932Z,22.84
2022-08-09T17:21:47.534Z,22.79
2022-08-09T17:24:27.806Z,22.61
2022-08-09T17:26:56.942Z,22.43
2022-08-09T17:29:24.948Z,22.24
2022-08-09T17:32:00.137Z,22.15
2022-08-09T17:35:10.449Z,22.15
2022-08-09T17:37:19.167Z,22.05
2022-08-09T17:39:52.248Z,21.89
2022-08-09T17:42:55.362Z,21.73
2022-08-09T17:45:15.844Z,21.74
2022-08-09T17:47:54.922Z,21.47
2022-08-09T17:54:13.098Z,21.37
2022-08-09T17:56:42.152Z,21.32
2022-08-09T17:59:16.792Z,21.21
2022-08-09T18:02:11.018Z,21.13
2022-08-09T18:04:30.613Z,20.98
2022-08-09T18:06:57.287Z,20.97
2022-08-09T18:09:40.971Z,20.98
2022-08-09T18:12:19.751Z,20.99
2022-08-09T18:14:54.387Z,20.94
2022-08-09T18:21:22.879Z,20.69
2022-08-09T18:24:09.920Z,20.55
2022-08-09T18:26:38.262Z,20.57
2022-08-09T18:30:35.097Z,20.48
2022-08-09T18:32:00.268Z,20.46
2022-08-09T18:34:29.636Z,20.48
2022-08-09T18:36:56.122Z,20.40
2022-08-09T18:39:25.073Z,20.42
2022-08-09T18:41:53.888Z,20.32
2022-08-09T18:44:26.855Z,20.36
2022-08-09T18:47:04.851Z,20.23
2022-08-09T18:49:41.455Z,20.11
2022-08-09T18:52:11.684Z,20.11
2022-08-09T18:54:38.858Z,19.98
2022-08-09T18:57:06.792Z,19.86
2022-08-09T18:59:37.563Z,19.82
2022-08-09T19:02:16.012Z,19.67
2022-08-09T19:04:47.630Z,19.52
2022-08-09T19:07:28.972Z,19.53
2022-08-09T19:10:14.151Z,19.47
2022-08-09T19:12:50.028Z,19.32
2022-08-09T19:15:17.820Z,19.24
2022-08-09T19:17:54.520Z,19.20
2022-08-09T19:20:23.303Z,19.07
2022-08-09T19:22:54.699Z,18.94
2022-08-09T19:25:42.757Z,18.96
2022-08-09T19:28:09.099Z,18.77
2022-08-09T19:30:44.415Z,18.64
2022-08-09T19:33:19.411Z,18.47
2022-08-09T19:35:57.544Z,18.47
2022-08-09T19:38:26.990Z,18.37
2022-08-09T19:40:54.049Z,18.40
2022-08-09T19:44:00.830Z,18.49
2022-08-09T19:46:08.443Z,18.53
2022-08-09T19:49:02.655Z,18.37
2022-08-09T19:51:27.920Z,18.10
2022-08-09T19:53:58.436Z,17.98
2022-08-09T19:56:28.591Z,17.85
2022-08-09T19:59:18.197Z,17.76
2022-08-09T20:01:52.506Z,17.68
2022-08-09T20:04:35.873Z,17.82
2022-08-09T20:07:06.084Z,17.87
2022-08-09T20:09:44.434Z,17.97
2022-08-09T20:12:31.800Z,17.85
2022-08-09T20:15:01.470Z,17.65
2022-08-09T20:17:48.178Z,17.56
2022-08-09T20:20:15.293Z,17.57
2022-08-09T20:22:46.486Z,17.52
2022-08-09T20:25:13.116Z,17.43
2022-08-09T20:27:49.109Z,17.29
2022-08-09T20:30:18.034Z,17.20
2022-08-09T20:32:52.315Z,17.06
2022-08-09T20:35:21.029Z,17.14
2022-08-09T20:38:22.450Z,17.14
2022-08-09T20:40:35.592Z,17.16
2022-08-09T20:43:18.731Z,17.25
2022-08-09T20:46:00.357Z,17.27
2022-08-09T20:48:30.973Z,17.28
2022-08-09T20:50:58.276Z,17.11
2022-08-09T20:53:36.280Z,17.01
2022-08-09T20:56:20.001Z,16.86
2022-08-09T20:58:54.684Z,16.80
2022-08-09T21:01:35.484Z,16.75
2022-08-09T21:05:51.131Z,16.75
2022-08-09T21:06:59.655Z,16.75
2022-08-09T21:09:41.851Z,16.78
2022-08-09T21:14:41.867Z,16.45
2022-08-09T21:18:20.930Z,16.45
2022-08-09T21:20:19.174Z,16.58
2022-08-09T21:22:46.664Z,16.36
2022-08-09T21:25:37.740Z,16.32
2022-08-09T21:28:07.297Z,16.16
2022-08-09T21:30:40.376Z,16.16
2022-08-09T21:33:08.106Z,16.09
2022-08-09T21:35:40.904Z,16.08
2022-08-09T21:38:21.021Z,16.05
2022-08-09T21:40:57.968Z,15.98
2022-08-09T21:43:57.100Z,16.05
2022-08-09T21:46:11.953Z,15.80
2022-08-09T21:48:42.763Z,15.59
2022-08-09T21:51:24.536Z,15.46
2022-08-09T21:54:02.493Z,15.42
2022-08-09T21:56:43.073Z,15.50
2022-08-09T21:59:16.284Z,15.64
2022-08-09T22:01:59.168Z,15.54
2022-08-09T22:04:55.540Z,15.68
2022-08-09T22:07:13.575Z,15.57
2022-08-09T22:09:50.522Z,15.46
2022-08-09T22:12:24.594Z,15.41
2022-08-09T22:14:58.055Z,15.39
2022-08-09T22:17:24.643Z,15.38
2022-08-09T22:19:58.940Z,15.33
2022-08-09T22:22:28.173Z,15.24
2022-08-09T22:26:06.786Z,15.30
2022-08-09T22:27:41.275Z,15.24
2022-08-09T22:30:09.692Z,15.18
2022-08-09T22:32:37.072Z,15.18
2022-08-09T22:35:06.769Z,15.00
2022-08-09T22:38:07.262Z,15.03
2022-08-09T22:40:34.663Z,15.14
2022-08-09T22:43:01.134Z,15.20
2022-08-09T22:48:15.375Z,15.01
2022-08-09T22:48:34.978Z,14.96
2022-08-09T22:51:02.814Z,14.99
2022-08-09T22:53:58.616Z,14.93
2022-08-09T22:56:31.133Z,14.93
2022-08-09T22:59:06.037Z,14.86
2022-08-09T23:01:51.771Z,14.79
2022-08-09T23:04:18.357Z,14.67
2022-08-09T23:07:03.577Z,14.62
2022-08-09T23:09:38.272Z,14.39
2022-08-09T23:12:05.185Z,14.45
2022-08-09T23:14:41.401Z,14.34
2022-08-09T23:17:10.029Z,14.12
2022-08-09T23:20:00.643Z,14.09
2022-08-09T23:22:22.901Z,14.14
2022-08-09T23:24:49.299Z,14.20
2022-08-09T23:27:18.908Z,14.11
2022-08-09T23:29:45.527Z,14.03
2022-08-09T23:32:12.193Z,14.02
2022-08-09T23:34:38.614Z,14.02
2022-08-09T23:37:05.864Z,14.07
2022-08-09T23:39:32.458Z,14.07
2022-08-09T23:41:59.131Z,13.97
2022-08-09T23:44:25.592Z,14.03
2022-08-09T23:46:57.364Z,13.91
2022-08-09T23:49:24.509Z,13.86
2022-08-09T23:51:52.062Z,13.79
2022-08-09T23:54:19.673Z,13.85
2022-08-09T23:56:54.043Z,13.64
2022-08-09T23:59:23.022Z,13.52
